Time;durP1;ratioP1;P1;durP2;ratioP2;P2;SDS_P1;SDS_P2;PMS_P1;PMS_P2;Temp;Humidity;BMP_temperature;BMP_pressure;BME280_temperature;BME280_humidity;BME280_pressure;Samples;Min_cycle;Max_cycle;Signal;HPM_P1;HPM_P2
2022/04/05 00:00:48;;;;;;;5.78;5.28;;;;;;;1.99;85.20;97358.27;1754354;80;21457;-38
2022/04/05 00:03:13;;;;;;;7.25;5.37;;;;;;;1.94;86.25;97355.08;1754455;82;21447;-39
2022/04/05 00:05:39;;;;;;;6.65;5.08;;;;;;;1.90;86.68;97353.09;1754438;80;21015;-38
2022/04/05 00:08:05;;;;;;;9.00;6.20;;;;;;;1.91;86.82;97350.90;1754416;82;21007;-38
2022/04/05 00:10:31;;;;;;;6.58;5.85;;;;;;;1.81;87.57;97338.02;1754414;82;21014;-41
2022/04/05 00:12:58;;;;;;;5.97;5.40;;;;;;;1.87;87.32;97340.31;1754334;82;20964;-41
2022/04/05 00:15:24;;;;;;;5.97;5.37;;;;;;;1.87;87.66;97343.34;1754553;80;21003;-40
2022/04/05 00:17:50;;;;;;;6.45;5.30;;;;;;;1.87;87.66;97337.72;1754520;81;20968;-41
2022/04/05 00:20:15;;;;;;;6.03;5.37;;;;;;;1.90;87.66;97331.53;1754425;80;21468;-41
2022/04/05 00:22:41;;;;;;;6.97;5.70;;;;;;;1.96;87.00;97323.89;1754401;80;20974;-41
2022/04/05 00:25:08;;;;;;;5.97;5.45;;;;;;;1.93;86.97;97331.38;1754376;80;20968;-42
2022/04/05 00:27:34;;;;;;;6.40;5.67;;;;;;;1.96;87.95;97311.76;1754446;82;21007;-41
2022/04/05 00:30:00;;;;;;;7.50;6.42;;;;;;;2.02;87.45;97323.56;1754341;82;21525;-38
2022/04/05 00:32:28;;;;;;;7.00;5.72;;;;;;;2.12;86.42;97311.80;1754383;82;20975;-39
2022/04/05 00:34:54;;;;;;;7.95;6.03;;;;;;;2.06;87.93;97322.03;1753340;82;21015;-40
2022/04/05 00:37:19;;;;;;;7.10;5.50;;;;;;;2.13;87.82;97342.01;1754332;82;21105;-39
2022/04/05 00:39:45;;;;;;;7.05;5.97;;;;;;;2.17;87.85;97309.80;1754339;82;21015;-42
2022/04/05 00:42:11;;;;;;;6.92;6.22;;;;;;;2.18;88.91;97302.39;1754317;82;20979;-38
2022/04/05 00:44:38;;;;;;;7.72;6.35;;;;;;;2.23;88.31;97287.89;1754287;82;21043;-38
2022/04/05 00:47:17;;;;;;;7.22;6.30;;;;;;;2.23;88.07;97296.50;1754876;81;20955;-39
2022/04/05 00:49:47;;;;;;;7.12;6.37;;;;;;;2.30;87.51;97307.39;1754412;80;20967;-41
2022/04/05 00:52:13;;;;;;;10.13;6.42;;;;;;;2.35;86.33;97293.72;1753094;80;20977;-40
2022/04/05 00:54:41;;;;;;;7.67;5.47;;;;;;;2.41;86.51;97299.86;1754232;82;20952;-38
2022/04/05 00:57:21;;;;;;;9.98;6.50;;;;;;;2.44;86.41;97284.61;1754315;82;20979;-39
2022/04/05 00:59:50;;;;;;;7.15;5.65;;;;;;;2.44;86.62;97298.41;1754350;81;20963;-41
2022/04/05 01:02:20;;;;;;;6.97;6.28;;;;;;;2.45;86.56;97275.42;1754323;82;20956;-40
2022/04/05 01:04:47;;;;;;;6.80;6.10;;;;;;;2.47;86.86;97265.83;1754325;81;20975;-39
2022/04/05 01:07:19;;;;;;;7.00;6.30;;;;;;;2.53;85.36;97271.56;1754608;81;20979;-42
2022/04/05 01:09:45;;;;;;;7.12;6.20;;;;;;;2.48;87.00;97267.48;1754378;82;20959;-39
2022/04/05 01:12:13;;;;;;;7.80;6.53;;;;;;;2.50;86.92;97272.12;1754342;80;21472;-41
2022/04/05 01:14:41;;;;;;;6.58;5.92;;;;;;;2.54;87.04;97286.23;1754388;81;21003;-40
2022/04/05 01:17:07;;;;;;;6.83;6.05;;;;;;;2.55;87.20;97272.31;1754568;82;21476;-40
2022/04/05 01:19:34;;;;;;;6.37;5.77;;;;;;;2.55;87.54;97261.50;1754582;82;20967;-42
2022/04/05 01:22:01;;;;;;;6.93;6.33;;;;;;;2.54;87.37;97266.30;1754558;82;20975;-41
2022/04/05 01:24:28;;;;;;;6.87;6.17;;;;;;;2.58;87.08;97261.31;1754510;82;20944;-41
2022/04/05 01:26:57;;;;;;;6.65;6.05;;;;;;;2.57;87.17;97260.13;1754314;82;20970;-39
2022/04/05 01:29:26;;;;;;;6.87;6.22;;;;;;;2.53;87.35;97249.52;1754365;82;20987;-39
2022/04/05 01:31:56;;;;;;;8.45;6.53;;;;;;;2.55;88.30;97261.50;1754307;82;21019;-39
2022/04/05 01:34:26;;;;;;;7.25;6.33;;;;;;;2.59;87.73;97266.89;1753720;82;20940;-39
2022/04/05 01:36:58;;;;;;;7.08;6.10;;;;;;;2.56;87.68;97251.48;1754450;80;21472;-39
2022/04/05 01:39:27;;;;;;;7.25;6.17;;;;;;;2.55;88.36;97258.91;1754476;82;21011;-39
2022/04/05 01:41:59;;;;;;;7.78;6.00;;;;;;;2.56;88.62;97270.94;1754507;82;21023;-41
2022/04/05 01:44:28;;;;;;;7.15;6.37;;;;;;;2.58;88.15;97254.82;1754203;82;21464;-41
2022/04/05 01:46:54;;;;;;;7.03;6.08;;;;;;;2.62;88.11;97262.84;1754562;82;20967;-40
2022/04/05 01:49:21;;;;;;;7.15;6.45;;;;;;;2.60;88.88;97256.04;1754449;82;20974;-39
2022/04/05 01:51:47;;;;;;;6.72;6.05;;;;;;;2.65;87.74;97256.16;1754537;82;21040;-40
2022/04/05 01:54:17;;;;;;;6.70;6.10;;;;;;;2.61;88.43;97268.93;1754466;80;20968;-39
2022/04/05 01:56:49;;;;;;;7.85;6.75;;;;;;;2.63;87.99;97252.81;1754171;80;21012;-41
2022/04/05 01:59:19;;;;;;;5.97;5.37;;;;;;;2.68;88.02;97253.40;1754476;81;20951;-39
2022/04/05 02:01:46;;;;;;;9.08;6.47;;;;;;;2.69;87.76;97255.52;1754445;81;21508;-38
2022/04/05 02:04:13;;;;;;;7.05;6.35;;;;;;;2.66;87.97;97261.73;1754655;82;20936;-38
2022/04/05 02:06:41;;;;;;;6.85;6.12;;;;;;;2.66;88.58;97243.56;1754637;82;20967;-41
2022/04/05 02:09:07;;;;;;;6.65;5.92;;;;;;;2.74;88.00;97250.91;1754475;80;21006;-39
2022/04/05 02:11:34;;;;;;;7.00;6.30;;;;;;;2.72;87.40;97238.48;1754681;81;21441;-42
2022/04/05 02:14:00;;;;;;;6.80;6.10;;;;;;;2.76;87.78;97249.06;1754435;82;20979;-42
2022/04/05 02:16:26;;;;;;;7.60;6.65;;;;;;;2.80;87.55;97243.23;1754416;82;21014;-39
2022/04/05 02:18:54;;;;;;;7.10;6.47;;;;;;;2.79;87.63;97246.30;1754489;82;20944;-40
2022/04/05 02:21:20;;;;;;;7.62;6.30;;;;;;;2.88;86.45;97248.38;1753402;82;20972;-42
2022/04/05 02:23:46;;;;;;;7.00;6.42;;;;;;;2.87;86.90;97236.34;1754470;81;20998;-38
2022/04/05 02:26:12;;;;;;;8.00;7.03;;;;;;;2.86;87.49;97239.02;1754417;82;21040;-41
2022/04/05 02:28:38;;;;;;;8.38;6.90;;;;;;;2.88;87.14;97244.95;1754415;81;21007;-40
2022/04/05 02:31:04;;;;;;;9.10;7.10;;;;;;;2.89;86.99;97251.80;1754463;82;21023;-40
2022/04/05 02:33:30;;;;;;;8.45;7.05;;;;;;;2.92;86.74;97228.73;1754717;82;21124;-39
2022/04/05 02:35:56;;;;;;;7.50;6.72;;;;;;;2.93;86.92;97229.95;1754473;82;21446;-39
2022/04/05 02:38:22;;;;;;;8.08;7.28;;;;;;;2.95;86.75;97222.91;1754637;82;20984;-38
2022/04/05 02:43:28;;;;;;;9.20;6.87;;;;;;;3.05;87.05;97212.81;1800259;79;23011;-42
2022/04/05 02:45:55;;;;;;;7.97;7.17;;;;;;;2.98;87.21;97217.52;1760434;80;22244;-42
2022/04/05 02:48:24;;;;;;;7.37;6.47;;;;;;;3.03;86.79;97219.39;1760433;81;21098;-41
2022/04/05 02:50:51;;;;;;;8.73;7.83;;;;;;;3.00;87.40;97209.64;1761796;81;21023;-37
2022/04/05 02:53:18;;;;;;;7.63;6.83;;;;;;;3.07;86.92;97211.82;1762010;81;21026;-37
2022/04/05 02:55:44;;;;;;;10.80;7.30;;;;;;;3.14;86.64;97216.64;1762249;80;21753;-37
2022/04/05 02:58:11;;;;;;;8.13;7.33;;;;;;;3.13;87.01;97217.12;1761748;81;20983;-37
2022/04/05 03:00:38;;;;;;;7.75;7.05;;;;;;;3.09;86.99;97203.91;1762007;81;21034;-38
2022/04/05 03:03:04;;;;;;;8.90;8.00;;;;;;;3.16;86.13;97206.52;1761932;80;21499;-40
2022/04/05 03:05:30;;;;;;;8.70;7.55;;;;;;;3.19;85.71;97213.32;1761734;80;20967;-39
2022/04/05 03:07:56;;;;;;;8.23;7.40;;;;;;;3.18;85.93;97211.16;1761840;81;20991;-38
2022/04/05 03:10:22;;;;;;;8.70;7.80;;;;;;;3.20;86.49;97217.57;1761725;81;21500;-41
2022/04/05 03:12:48;;;;;;;8.25;7.47;;;;;;;3.22;86.38;97198.39;1761804;80;21003;-41
2022/04/05 03:15:14;;;;;;;8.03;7.25;;;;;;;3.27;86.15;97192.91;1761766;81;21465;-40
2022/04/05 03:17:45;;;;;;;6.80;6.20;;;;;;;3.27;85.99;97195.51;1761680;81;21038;-40
2022/04/05 03:20:13;;;;;;;7.70;6.90;;;;;;;3.29;86.02;97220.92;1761740;81;21441;-39
2022/04/05 03:22:41;;;;;;;7.97;7.17;;;;;;;3.32;85.87;97222.52;1761687;80;20991;-39
2022/04/05 03:25:09;;;;;;;8.75;7.78;;;;;;;3.32;86.06;97202.56;1761599;81;20964;-39
2022/04/05 03:27:41;;;;;;;7.35;6.65;;;;;;;3.37;85.93;97197.11;1761814;81;21026;-42
2022/04/05 03:30:09;;;;;;;7.67;6.75;;;;;;;3.42;85.71;97193.75;1761673;81;20995;-43
2022/04/05 03:32:34;;;;;;;9.05;7.37;;;;;;;3.42;85.98;97204.14;1761688;81;21046;-43
2022/04/05 03:35:00;;;;;;;7.67;6.90;;;;;;;3.43;85.65;97217.52;1761761;80;21512;-43
2022/04/05 03:37:26;;;;;;;8.60;7.15;;;;;;;3.44;85.49;97207.05;1761729;81;20999;-38
2022/04/05 03:39:52;;;;;;;7.08;6.45;;;;;;;3.44;85.24;97205.74;1761736;80;20991;-42
2022/04/05 03:42:18;;;;;;;7.60;6.80;;;;;;;3.49;84.83;97202.02;1761791;80;21007;-40
2022/04/05 03:44:44;;;;;;;8.00;7.20;;;;;;;3.53;84.69;97208.70;1761980;81;20987;-42
2022/04/05 03:47:10;;;;;;;7.28;6.58;;;;;;;3.51;84.87;97207.96;1761997;81;20983;-39
2022/04/05 03:49:35;;;;;;;7.85;7.08;;;;;;;3.54;84.49;97203.89;1761978;81;21021;-42
2022/04/05 03:52:02;;;;;;;10.50;7.60;;;;;;;3.54;84.83;97202.59;1761993;81;21034;-43
2022/04/05 03:54:27;;;;;;;7.03;6.40;;;;;;;3.54;84.60;97203.41;1761491;81;20983;-39
2022/04/05 03:56:53;;;;;;;7.40;6.70;;;;;;;3.54;84.75;97215.11;1761415;80;20968;-41
2022/04/05 03:59:19;;;;;;;7.37;6.67;;;;;;;3.53;84.95;97200.46;1761447;81;21019;-40
2022/04/05 04:01:44;;;;;;;8.50;6.67;;;;;;;3.54;84.62;97215.58;1761492;81;21460;-40
2022/04/05 04:04:10;;;;;;;7.42;6.62;;;;;;;3.59;84.56;97209.17;1761511;81;21544;-41
2022/04/05 04:06:36;;;;;;;8.53;7.00;;;;;;;3.64;84.24;97210.21;1761519;81;21468;-40
2022/04/05 04:09:02;;;;;;;7.65;6.90;;;;;;;3.57;85.12;97202.41;1761419;81;20995;-42
2022/04/05 04:11:28;;;;;;;8.43;7.40;;;;;;;3.63;84.94;97207.23;1761439;81;20968;-40
2022/04/05 04:13:54;;;;;;;7.90;7.10;;;;;;;3.58;85.31;97197.56;1761397;81;20983;-39
2022/04/05 04:16:20;;;;;;;8.35;7.00;;;;;;;3.62;85.20;97200.34;1761398;81;20980;-42
2022/04/05 04:18:46;;;;;;;9.10;8.23;;;;;;;3.65;84.69;97203.59;1761437;81;21034;-41
2022/04/05 04:21:12;;;;;;;8.83;7.92;;;;;;;3.65;85.22;97198.88;1761474;81;20995;-42
2022/04/05 04:23:38;;;;;;;8.75;7.85;;;;;;;3.62;85.40;97192.55;1761469;81;21475;-40
2022/04/05 04:26:05;;;;;;;8.35;7.22;;;;;;;3.67;85.13;97189.21;1761445;81;21508;-40
2022/04/05 04:28:31;;;;;;;;;;;;;;;3.65;85.42;97191.07;1764009;81;21014;-42
2022/04/05 04:30:57;;;;;;;8.85;7.95;;;;;;;3.68;85.52;97198.69;1761736;81;20128;-39
2022/04/05 04:33:23;;;;;;;9.28;6.87;;;;;;;3.70;85.74;97212.90;1761419;81;20990;-41
2022/04/05 04:35:49;;;;;;;8.55;7.70;;;;;;;3.63;85.90;97198.95;1761454;81;20987;-41
2022/04/05 04:38:15;;;;;;;7.47;6.78;;;;;;;3.72;85.61;97213.16;1761434;81;20994;-41
2022/04/05 04:40:47;;;;;;;8.80;7.03;;;;;;;3.72;85.68;97208.44;1760795;81;21046;-41
2022/04/05 04:43:18;;;;;;;8.68;7.80;;;;;;;3.75;85.97;97211.69;1752086;81;21512;-40
2022/04/05 04:45:45;;;;;;;8.40;7.62;;;;;;;3.76;85.54;97202.94;1748022;81;21034;-39
2022/04/05 04:48:12;;;;;;;11.30;8.78;;;;;;;3.84;84.85;97218.92;1748179;81;20996;-42
2022/04/05 04:50:38;;;;;;;8.18;7.37;;;;;;;3.85;85.03;97206.27;1748172;81;21588;-42
2022/04/05 04:53:04;;;;;;;7.35;6.65;;;;;;;3.87;84.86;97210.56;1748081;81;20976;-39
2022/04/05 04:55:32;;;;;;;8.83;7.40;;;;;;;3.89;84.58;97224.30;1747973;81;20992;-39
2022/04/05 04:57:59;;;;;;;8.38;7.40;;;;;;;4.00;83.77;97217.97;1748122;81;21047;-39
2022/04/05 05:00:25;;;;;;;7.70;6.65;;;;;;;4.00;83.40;97212.77;1748075;81;20956;-39
2022/04/05 05:02:51;;;;;;;7.45;6.62;;;;;;;4.05;83.17;97228.92;1748050;81;20996;-42
2022/04/05 05:05:21;;;;;;;7.83;7.12;;;;;;;4.07;83.19;97214.05;1748292;81;20987;-40
2022/04/05 05:07:50;;;;;;;7.62;6.53;;;;;;;4.12;82.97;97222.89;1748162;81;21035;-39
2022/04/05 05:10:20;;;;;;;9.40;7.42;;;;;;;4.14;82.92;97218.42;1748017;81;21039;-41
2022/04/05 05:12:46;;;;;;;8.73;6.97;;;;;;;4.12;83.13;97234.12;1747993;82;20977;-40
2022/04/05 05:15:18;;;;;;;6.87;6.28;;;;;;;4.19;82.80;97224.17;1748355;81;21528;-42
2022/04/05 05:17:45;;;;;;;8.10;7.12;;;;;;;4.21;82.80;97228.34;1748048;81;20980;-40
2022/04/05 05:20:12;;;;;;;;;;;;;;;4.23;82.64;97230.38;1750673;82;20968;-40
2022/04/05 05:22:39;;;;;;;9.30;6.58;;;;;;;4.23;82.63;97245.16;1748075;81;20124;-39
2022/04/05 05:25:07;;;;;;;7.30;6.60;;;;;;;4.23;82.73;97238.19;1748129;82;20994;-40
2022/04/05 05:27:33;;;;;;;9.00;7.53;;;;;;;4.26;82.77;97254.53;1748024;81;21468;-41
2022/04/05 05:30:00;;;;;;;8.10;7.30;;;;;;;4.27;82.66;97257.04;1748189;81;20992;-42
2022/04/05 05:32:26;;;;;;;8.85;7.33;;;;;;;4.25;82.86;97247.20;1748041;81;21449;-40
2022/04/05 05:34:52;;;;;;;7.50;6.62;;;;;;;4.30;83.15;97271.64;1748009;81;21136;-42
2022/04/05 05:37:18;;;;;;;6.75;6.05;;;;;;;4.36;82.77;97269.95;1747973;81;20964;-40
2022/04/05 05:39:44;;;;;;;8.73;7.30;;;;;;;4.39;83.30;97269.77;1748105;81;21350;-40
2022/04/05 05:42:10;;;;;;;7.50;6.22;;;;;;;4.41;83.02;97279.13;1749552;80;21520;-40
2022/04/05 05:44:36;;;;;;;7.50;6.80;;;;;;;4.54;82.65;97267.96;1761410;81;21297;-41
2022/04/05 05:47:04;;;;;;;8.45;6.95;;;;;;;4.62;82.33;97273.53;1761469;81;20997;-39
2022/04/05 05:49:30;;;;;;;8.10;7.30;;;;;;;4.59;82.35;97276.31;1761317;81;21003;-41
2022/04/05 05:51:56;;;;;;;7.10;6.35;;;;;;;4.60;82.18;97274.92;1761291;80;21011;-42
2022/04/05 05:54:22;;;;;;;6.90;6.20;;;;;;;4.66;82.60;97284.55;1761413;81;21003;-40
2022/04/05 05:56:48;;;;;;;7.05;6.35;;;;;;;4.61;83.20;97290.89;1761363;80;21011;-39
2022/04/05 05:59:14;;;;;;;8.75;7.10;;;;;;;4.69;82.59;97286.97;1761442;81;20964;-40
2022/04/05 06:01:40;;;;;;;10.15;7.53;;;;;;;4.69;82.57;97292.18;1761347;81;20979;-40
2022/04/05 06:04:06;;;;;;;9.43;7.60;;;;;;;4.65;83.33;97305.03;1761330;81;21535;-39
2022/04/05 06:06:32;;;;;;;8.80;7.37;;;;;;;4.68;82.69;97294.43;1761282;81;21128;-42
2022/04/05 06:08:59;;;;;;;6.22;5.45;;;;;;;4.66;83.30;97309.29;1761416;81;20987;-41
2022/04/05 06:11:25;;;;;;;5.28;4.80;;;;;;;4.59;82.80;97286.73;1761496;81;21468;-43
2022/04/05 06:13:52;;;;;;;4.15;3.20;;;;;;;4.60;81.84;97297.50;1761481;81;21039;-40
2022/04/05 06:16:21;;;;;;;2.90;2.67;;;;;;;4.62;78.40;97323.00;1761574;81;20971;-39
2022/04/05 06:18:47;;;;;;;1.92;1.35;;;;;;;4.58;75.90;97322.35;1761405;81;21674;-39
2022/04/05 06:21:15;;;;;;;3.72;3.40;;;;;;;4.56;74.41;97322.88;1761227;81;20976;-40
2022/04/05 06:23:41;;;;;;;9.30;6.37;;;;;;;4.55;74.11;97310.81;1761008;81;20964;-40
2022/04/05 06:26:07;;;;;;;5.70;2.02;;;;;;;4.47;73.00;97311.75;1761320;80;21030;-40
2022/04/05 06:28:33;;;;;;;1.95;1.57;;;;;;;4.55;73.46;97316.02;1761336;81;20979;-42
2022/04/05 06:30:59;;;;;;;3.33;2.05;;;;;;;4.49;73.87;97318.16;1761302;81;21046;-41
2022/04/05 06:33:25;;;;;;;2.08;1.27;;;;;;;4.55;73.46;97317.80;1761295;81;21042;-41
2022/04/05 06:35:57;;;;;;;2.10;1.40;;;;;;;4.52;73.52;97331.00;1761300;80;21403;-41
2022/04/05 06:38:24;;;;;;;2.85;1.50;;;;;;;4.63;73.82;97342.88;1761334;81;20998;-41
2022/04/05 06:40:51;;;;;;;2.90;2.00;;;;;;;4.67;74.05;97326.59;1761478;81;20994;-41
2022/04/05 06:43:23;;;;;;;1.60;1.50;;;;;;;4.61;75.04;97340.36;1755150;81;21000;-40
2022/04/05 06:45:48;;;;;;;2.08;1.75;;;;;;;4.69;75.27;97337.27;1747945;81;21043;-44
2022/04/05 06:48:14;;;;;;;3.42;1.50;;;;;;;4.69;75.97;97340.34;1747978;81;21484;-42
2022/04/05 06:50:40;;;;;;;4.15;1.72;;;;;;;4.67;76.16;97337.01;1748076;81;20992;-41
2022/04/05 06:53:08;;;;;;;2.37;1.80;;;;;;;4.74;76.68;97340.90;1748017;81;21460;-41
2022/04/05 06:55:34;;;;;;;2.30;2.10;;;;;;;4.75;76.62;97340.81;1748010;81;20984;-42
2022/04/05 06:58:00;;;;;;;5.80;2.22;;;;;;;4.77;76.91;97339.41;1747950;81;20999;-43
2022/04/05 07:00:27;;;;;;;2.00;1.80;;;;;;;4.68;77.84;97337.39;1747987;81;21547;-42
2022/04/05 07:02:55;;;;;;;5.67;1.80;;;;;;;4.79;76.95;97347.48;1748105;81;21093;-41
2022/04/05 07:05:22;;;;;;;2.25;2.05;;;;;;;4.83;76.92;97349.91;1747972;81;21448;-41
2022/04/05 07:07:49;;;;;;;2.37;2.17;;;;;;;4.89;76.89;97346.91;1748183;81;21012;-41
2022/04/05 07:10:18;;;;;;;2.90;1.92;;;;;;;4.93;76.82;97353.14;1748019;81;21631;-41
2022/04/05 07:12:46;;;;;;;3.17;2.02;;;;;;;4.96;75.81;97347.71;1748077;81;20983;-42
2022/04/05 07:15:12;;;;;;;2.83;2.00;;;;;;;5.03;75.42;97348.16;1747911;81;21004;-40
2022/04/05 07:17:40;;;;;;;3.65;2.22;;;;;;;5.04;74.52;97360.27;1748051;81;20968;-40
2022/04/05 07:20:09;;;;;;;3.17;1.87;;;;;;;5.04;74.31;97338.58;1748138;82;20968;-41
2022/04/05 07:22:45;;;;;;;2.98;1.98;;;;;;;5.16;73.60;97349.04;1748109;81;21031;-41
2022/04/05 07:25:11;;;;;;;2.52;1.90;;;;;;;5.18;72.67;97347.20;1747977;81;21003;-40
2022/04/05 07:27:37;;;;;;;4.35;2.22;;;;;;;5.31;72.58;97347.23;1748027;81;20999;-40
2022/04/05 07:30:04;;;;;;;1.98;1.72;;;;;;;5.33;71.65;97354.93;1748125;81;21445;-41
2022/04/05 07:32:40;;;;;;;2.67;2.07;;;;;;;5.50;71.61;97362.98;1748446;82;21031;-40
2022/04/05 07:35:08;;;;;;;2.85;2.40;;;;;;;5.46;71.40;97365.42;1748203;82;21031;-41
2022/04/05 07:37:35;;;;;;;3.95;2.45;;;;;;;5.51;71.89;97365.48;1748169;81;20992;-40
2022/04/05 07:40:03;;;;;;;3.15;2.60;;;;;;;5.57;71.68;97362.47;1748195;81;21163;-40
2022/04/05 07:42:29;;;;;;;2.47;2.27;;;;;;;5.65;71.39;97365.86;1748058;82;21038;-41
2022/04/05 07:44:55;;;;;;;2.85;2.10;;;;;;;5.71;71.41;97360.70;1748122;81;21000;-42
2022/04/05 07:47:21;;;;;;;2.27;2.08;;;;;;;5.74;70.77;97358.73;1748091;81;21101;-39
2022/04/05 07:49:47;;;;;;;3.45;2.10;;;;;;;5.71;69.47;97378.52;1748069;81;20976;-41
2022/04/05 07:52:14;;;;;;;5.65;2.15;;;;;;;5.76;68.36;97374.28;1748202;81;21509;-40
2022/04/05 07:54:41;;;;;;;;;;;;;;;5.86;68.43;97386.27;1750664;81;21461;-40
2022/04/05 07:57:09;;;;;;;1.65;1.45;;;;;;;5.83;67.27;97389.89;1748198;81;20124;-43
2022/04/05 07:59:35;;;;;;;2.40;1.52;;;;;;;5.67;65.64;97377.02;1747995;81;21417;-41
2022/04/05 08:02:01;;;;;;;3.83;1.32;;;;;;;5.62;65.49;97372.61;1748036;81;21473;-41
2022/04/05 08:04:27;;;;;;;3.90;1.60;;;;;;;5.82;65.28;97397.81;1748149;81;20995;-41
2022/04/05 08:06:53;;;;;;;2.67;1.65;;;;;;;5.81;65.26;97380.52;1748103;81;21003;-40
2022/04/05 08:09:19;;;;;;;3.12;1.87;;;;;;;5.87;65.16;97390.52;1748152;81;20988;-41
2022/04/05 08:11:44;;;;;;;2.90;1.70;;;;;;;5.88;64.91;97386.99;1748018;82;21039;-41
2022/04/05 08:14:10;;;;;;;5.40;1.77;;;;;;;5.91;64.58;97391.54;1748256;81;20968;-42
2022/04/05 08:16:38;;;;;;;2.25;1.10;;;;;;;5.85;64.08;97403.66;1748057;81;21072;-42
2022/04/05 08:19:05;;;;;;;2.40;1.75;;;;;;;5.83;63.36;97387.77;1748298;81;20972;-40
2022/04/05 08:21:31;;;;;;;2.52;1.87;;;;;;;5.75;63.43;97409.97;1748157;81;21043;-42
2022/04/05 08:23:57;;;;;;;4.75;1.77;;;;;;;5.82;64.25;97414.77;1748274;81;21043;-40
2022/04/05 08:26:23;;;;;;;3.08;1.40;;;;;;;5.75;64.13;97409.97;1748157;81;20991;-39
2022/04/05 08:28:49;;;;;;;2.05;1.20;;;;;;;5.76;63.78;97415.53;1748091;81;21524;-41
2022/04/05 08:31:18;;;;;;;4.22;1.20;;;;;;;5.71;63.45;97418.94;1745325;81;21010;-42
2022/04/05 08:33:44;;;;;;;1.30;1.10;;;;;;;5.74;63.14;97424.41;1746211;82;20982;-42
2022/04/05 08:36:09;;;;;;;4.05;0.88;;;;;;;5.69;63.71;97412.13;1746074;82;21444;-40
2022/04/05 08:38:35;;;;;;;1.37;0.88;;;;;;;5.71;63.17;97422.85;1746135;82;20971;-42
2022/04/05 08:41:05;;;;;;;2.85;1.22;;;;;;;5.66;63.62;97416.27;1746069;82;20980;-43
2022/04/05 08:43:32;;;;;;;2.02;1.10;;;;;;;5.66;63.89;97434.05;1747858;82;21020;-41
2022/04/05 08:46:00;;;;;;;4.72;1.72;;;;;;;5.53;64.01;97433.15;1751717;82;20948;-41
2022/04/05 08:48:29;;;;;;;3.80;1.87;;;;;;;5.50;64.15;97444.62;1751828;81;21002;-44
2022/04/05 08:50:58;;;;;;;2.35;1.40;;;;;;;5.41;64.31;97429.57;1751810;82;21047;-42
2022/04/05 08:53:25;;;;;;;1.62;1.00;;;;;;;5.28;64.70;97430.83;1751915;82;21023;-40
2022/04/05 08:55:51;;;;;;;2.15;1.05;;;;;;;5.23;65.38;97438.57;1751499;82;20989;-42
2022/04/05 08:58:18;;;;;;;6.92;2.00;;;;;;;5.25;65.56;97438.83;1753248;82;21034;-41
2022/04/05 09:00:44;;;;;;;6.25;1.55;;;;;;;5.26;65.88;97441.82;1753495;82;21500;-43
2022/04/05 09:03:10;;;;;;;7.80;2.10;;;;;;;5.17;66.66;97434.11;1753025;82;21007;-42
2022/04/05 09:05:40;;;;;;;4.80;2.02;;;;;;;5.16;67.28;97447.23;1752988;80;22255;-42
2022/04/05 09:08:15;;;;;;;5.75;1.77;;;;;;;5.20;67.33;97434.38;1753030;82;21052;-43
2022/04/05 09:10:43;;;;;;;3.05;2.00;;;;;;;5.19;67.93;97436.15;1748984;81;21038;-42
2022/04/05 09:13:11;;;;;;;5.47;2.17;;;;;;;5.24;67.76;97443.69;1753052;82;20983;-41
2022/04/05 09:15:38;;;;;;;3.85;1.85;;;;;;;5.22;68.00;97453.38;1753204;82;20948;-42
2022/04/05 09:18:05;;;;;;;5.47;1.77;;;;;;;5.13;68.68;97458.69;1725616;82;20972;-42
2022/04/05 09:20:40;;;;;;;1.87;1.77;;;;;;;5.18;68.57;97449.27;1753196;81;20944;-43
2022/04/05 09:23:23;;;;;;;4.72;1.98;;;;;;;5.15;69.07;97456.00;1752148;82;21007;-45
2022/04/05 09:25:59;;;;;;;3.47;1.90;;;;;;;5.11;69.08;97463.17;1743451;80;20968;-43
2022/04/05 09:28:29;;;;;;;5.28;2.27;;;;;;;5.09;69.12;97460.27;1753648;81;20971;-42
2022/04/05 09:31:05;;;;;;;5.03;2.60;;;;;;;5.12;69.14;97457.01;1765486;81;21046;-41
2022/04/05 09:33:34;;;;;;;5.42;2.60;;;;;;;5.09;69.29;97458.49;1766518;80;20971;-42
2022/04/05 09:36:13;;;;;;;4.08;2.70;;;;;;;5.10;69.28;97458.05;1766303;81;20989;-41
2022/04/05 09:38:43;;;;;;;5.85;2.47;;;;;;;5.08;70.00;97474.25;1766508;80;20986;-44
2022/04/05 09:41:16;;;;;;;5.58;2.80;;;;;;;5.08;69.94;97481.59;1766263;81;20975;-43
2022/04/05 09:43:56;;;;;;;3.12;2.55;;;;;;;5.21;69.54;97464.72;1768762;81;21487;-42
2022/04/05 09:46:22;;;;;;;10.43;5.65;;;;;;;5.20;70.12;97459.12;1774033;81;20983;-42
2022/04/05 09:49:03;;;;;;;6.42;3.42;;;;;;;5.30;70.31;97464.61;1774369;79;21013;-42
2022/04/05 09:51:44;;;;;;;9.75;5.35;;;;;;;5.30;70.23;97469.35;1774267;81;21824;-44
2022/04/05 09:54:27;;;;;;;14.87;7.15;;;;;;;5.33;70.64;97486.11;1774230;81;21135;-43
2022/04/05 09:57:03;;;;;;;13.10;5.62;;;;;;;5.39;70.89;97482.28;1773729;79;21578;-44
2022/04/05 09:59:44;;;;;;;8.30;4.05;;;;;;;5.34;71.75;97494.28;1773610;81;21009;-47
2022/04/05 10:02:14;;;;;;;7.80;4.22;;;;;;;5.31;72.00;97492.33;1774264;81;21029;-43
2022/04/05 10:05:10;;;;;;;6.53;3.87;;;;;;;5.22;72.17;97493.77;1773984;81;21006;-41
2022/04/05 10:07:37;;;;;;;7.20;3.85;;;;;;;5.26;73.41;97499.63;1774266;80;20986;-48
2022/04/05 10:10:06;;;;;;;7.47;3.95;;;;;;;5.07;74.17;97507.73;1772731;81;20982;-43
2022/04/05 10:12:32;;;;;;;5.78;3.70;;;;;;;4.95;75.11;97523.19;1774629;79;21064;-43
2022/04/05 10:15:00;;;;;;;4.78;3.58;;;;;;;4.75;76.64;97523.09;1773689;79;20995;-42
2022/04/05 10:17:27;;;;;;;;;;;;;;;4.84;75.96;97524.31;1776017;81;21586;-42
2022/04/05 10:19:58;;;;;;;6.12;4.35;;;;;;;4.78;77.19;97516.84;1765340;79;20395;-42
2022/04/05 10:22:26;;;;;;;6.30;4.65;;;;;;;4.75;77.79;97513.14;1758079;81;21047;-42
2022/04/05 10:24:55;;;;;;;7.12;4.10;;;;;;;4.69;79.14;97507.81;1757611;81;21038;-42
2022/04/05 10:27:23;;;;;;;8.58;3.50;;;;;;;4.70;79.58;97512.10;1758318;81;21158;-43
2022/04/05 10:30:13;;;;;;;7.25;3.90;;;;;;;4.76;80.66;97510.89;1759598;81;20987;-42
2022/04/05 10:32:56;;;;;;;4.87;3.72;;;;;;;5.05;80.37;97505.69;1757758;81;21042;-42
2022/04/05 10:35:25;;;;;;;5.35;3.27;;;;;;;5.46;80.97;97502.28;1759069;81;21042;-46
2022/04/05 10:37:54;;;;;;;5.35;3.12;;;;;;;6.05;79.46;97505.91;1758628;81;21578;-42
2022/04/05 10:40:20;;;;;;;6.97;3.85;;;;;;;5.97;78.57;97510.34;1765236;80;21050;-43
2022/04/05 10:42:51;;;;;;;5.15;3.67;;;;;;;5.97;78.07;97505.12;1773882;79;21520;-43
2022/04/05 10:45:28;;;;;;;6.15;4.65;;;;;;;5.86;77.65;97524.52;1772503;79;21019;-43
2022/04/05 10:48:20;;;;;;;8.88;3.77;;;;;;;5.80;77.27;97522.28;1771924;80;21105;-43
2022/04/05 10:50:46;;;;;;;4.80;2.90;;;;;;;5.74;77.67;97525.65;1758943;81;20991;-42
2022/04/05 10:53:32;;;;;;;7.03;3.20;;;;;;;5.47;77.50;97530.02;1760787;81;20980;-43
2022/04/05 10:56:10;;;;;;;5.95;3.08;;;;;;;5.42;77.54;97539.44;1760387;81;21026;-43
2022/04/05 10:58:54;;;;;;;3.98;2.83;;;;;;;5.17;76.91;97542.72;1760669;81;21114;-43
2022/04/05 11:01:25;;;;;;;10.25;4.90;;;;;;;5.10;78.17;97542.73;1759403;81;21558;-41
2022/04/05 11:04:18;;;;;;;9.63;5.15;;;;;;;5.05;78.49;97549.98;1743719;81;21011;-43
2022/04/05 11:07:07;;;;;;;9.00;4.83;;;;;;;4.92;79.38;97544.20;1760986;81;20944;-41
2022/04/05 11:09:54;;;;;;;8.83;4.47;;;;;;;5.64;80.43;97540.67;1760611;81;20988;-41
2022/04/05 11:12:23;;;;;;;;;;;;;;;7.34;77.08;97543.38;1762719;81;21019;-44
2022/04/05 11:15:05;;;;;;;10.05;5.95;;;;;;;8.99;74.32;97534.81;1760840;81;20124;-43
2022/04/05 11:17:29;;;;;;;16.57;6.15;;;;;;;10.04;68.61;97539.22;1760169;81;21069;-43
2022/04/05 11:19:58;;;;;;;10.90;5.87;;;;;;;9.47;68.57;97542.91;1761044;81;21042;-41
2022/04/05 11:22:29;;;;;;;11.97;5.72;;;;;;;9.14;69.77;97542.80;1761033;81;21488;-42
2022/04/05 11:25:13;;;;;;;14.18;5.87;;;;;;;8.62;69.24;97548.08;1761062;81;21014;-42
2022/04/05 11:27:49;;;;;;;7.80;5.42;;;;;;;8.58;70.04;97543.54;1760751;81;21468;-42
2022/04/05 11:30:26;;;;;;;13.32;6.70;;;;;;;8.01;68.76;97540.34;1761073;81;21492;-43
2022/04/05 11:33:17;;;;;;;;;;;;;;;7.96;69.34;97557.67;1763525;81;21043;-42
2022/04/05 11:35:53;;;;;;;13.15;5.30;;;;;;;7.54;69.67;97545.42;1760551;81;20425;-44
2022/04/05 11:38:27;;;;;;;12.35;6.37;;;;;;;7.53;70.18;97542.45;1760800;81;21046;-41
2022/04/05 11:41:02;;;;;;;12.07;5.60;;;;;;;7.36;68.78;97550.64;1761149;81;20995;-43
2022/04/05 11:43:36;;;;;;;13.00;5.67;;;;;;;7.39;69.12;97562.20;1761085;81;20968;-40
2022/04/05 11:46:19;;;;;;;11.28;4.53;;;;;;;7.34;68.35;97566.44;1760188;81;21528;-43
2022/04/05 11:48:54;;;;;;;10.25;4.40;;;;;;;7.61;67.12;97562.83;1761064;81;21484;-42
2022/04/05 11:51:24;;;;;;;13.08;5.15;;;;;;;7.45;66.86;97559.14;1761046;81;21022;-43